createdAt,value
2017-11-01T00:00:31.045Z,0
2017-11-01T00:01:39.295Z,0
2017-11-01T00:02:47.512Z,0
2017-11-01T00:03:55.145Z,0
2017-11-01T00:05:03.417Z,0
2017-11-01T00:06:11.221Z,0
2017-11-01T00:07:19.860Z,0
2017-11-01T00:08:27.588Z,0
2017-11-01T00:09:35.834Z,0
2017-11-01T00:10:43.730Z,0
2017-11-01T00:11:52.038Z,0
2017-11-01T00:13:00.016Z,0
2017-11-01T00:14:08.195Z,0
2017-11-01T00:15:16.604Z,0
2017-11-01T00:16:24.506Z,0
2017-11-01T00:17:32.266Z,0
2017-11-01T00:18:40.493Z,0
2017-11-01T00:19:48.578Z,0
2017-11-01T00:20:56.996Z,0
2017-11-01T00:22:04.940Z,0
2017-11-01T00:23:13.117Z,0
2017-11-01T00:24:21.310Z,0
2017-11-01T00:25:29.008Z,0
2017-11-01T00:26:37.145Z,0
2017-11-01T00:27:45.062Z,0
2017-11-01T00:28:53.142Z,0
2017-11-01T00:30:01.133Z,0
2017-11-01T00:31:09.486Z,0
2017-11-01T00:32:17.734Z,0
2017-11-01T00:33:26.003Z,0
2017-11-01T00:34:33.481Z,0
2017-11-01T00:35:41.638Z,0
2017-11-01T00:36:49.882Z,0
2017-11-01T00:37:57.835Z,0
2017-11-01T00:39:06.251Z,0
2017-11-01T00:40:14.261Z,0
2017-11-01T00:41:22.017Z,0
2017-11-01T00:42:30.222Z,0
2017-11-01T00:43:38.582Z,0
2017-11-01T00:44:46.513Z,0
2017-11-01T00:45:54.973Z,0
2017-11-01T00:47:02.555Z,0
2017-11-01T00:48:10.863Z,0
2017-11-01T00:49:18.782Z,0
2017-11-01T00:50:26.645Z,0
2017-11-01T00:51:34.740Z,0
2017-11-01T00:52:42.814Z,0
2017-11-01T00:53:50.902Z,0
2017-11-01T00:54:59.006Z,0
2017-11-01T00:56:07.074Z,0
2017-11-01T00:57:15.157Z,0
2017-11-01T00:58:23.244Z,0
2017-11-01T00:59:31.327Z,0
2017-11-01T01:00:39.478Z,0
2017-11-01T01:01:47.500Z,0
2017-11-01T01:02:55.586Z,0
2017-11-01T01:04:03.677Z,0
2017-11-01T01:05:11.759Z,0
2017-11-01T01:06:19.842Z,0
2017-11-01T01:07:27.928Z,0
2017-11-01T01:08:36.014Z,0
2017-11-01T01:09:44.118Z,0
2017-11-01T01:10:52.188Z,0
2017-11-01T01:12:00.268Z,0
2017-11-01T01:13:08.356Z,0
2017-11-01T01:14:16.444Z,0
2017-11-01T01:15:24.525Z,0
2017-11-01T01:16:32.618Z,0
2017-11-01T01:17:40.767Z,0
2017-11-01T01:18:48.784Z,0
2017-11-01T01:19:56.872Z,0
2017-11-01T01:21:05.358Z,0
2017-11-01T01:22:13.213Z,0
2017-11-01T01:23:21.585Z,0
2017-11-01T01:24:29.586Z,0
2017-11-01T01:25:37.672Z,0
2017-11-01T01:26:45.756Z,0
2017-11-01T01:27:53.858Z,0
2017-11-01T01:29:01.949Z,0
2017-11-01T01:30:10.040Z,0
2017-11-01T01:31:18.117Z,0
2017-11-01T01:32:26.201Z,0
2017-11-01T01:33:34.288Z,0
2017-11-01T01:34:42.388Z,0
2017-11-01T01:35:50.459Z,0
2017-11-01T01:36:58.546Z,0
2017-11-01T01:38:06.636Z,0
2017-11-01T01:39:14.716Z,0
2017-11-01T01:40:22.800Z,0
2017-11-01T01:41:30.898Z,0
2017-11-01T01:42:38.972Z,0
2017-11-01T01:43:47.060Z,0
2017-11-01T01:44:55.306Z,0
2017-11-01T01:46:03.395Z,0
2017-11-01T01:47:11.477Z,0
2017-11-01T01:48:19.562Z,0
2017-11-01T01:49:27.648Z,0
2017-11-01T01:50:35.732Z,0
2017-11-01T01:51:43.817Z,0
2017-11-01T01:52:51.902Z,0
2017-11-01T01:53:59.989Z,0
2017-11-01T01:55:08.074Z,0
2017-11-01T01:56:16.162Z,0
2017-11-01T01:57:24.253Z,0
2017-11-01T01:58:32.334Z,0
2017-11-01T01:59:40.416Z,0
2017-11-01T02:00:48.507Z,0
2017-11-01T02:01:56.587Z,0
2017-11-01T02:03:04.674Z,0
2017-11-01T02:04:12.759Z,0
2017-11-01T02:05:20.853Z,0
2017-11-01T02:06:28.945Z,0
2017-11-01T02:07:37.030Z,0
2017-11-01T02:08:45.115Z,0
2017-11-01T02:09:53.195Z,0
2017-11-01T02:11:01.287Z,0
2017-11-01T02:12:09.381Z,0
2017-11-01T02:13:17.452Z,0
2017-11-01T02:14:25.552Z,0
2017-11-01T02:15:33.624Z,0
2017-11-01T02:16:41.787Z,0
2017-11-01T02:17:49.900Z,0
2017-11-01T02:18:57.880Z,0
2017-11-01T02:20:05.990Z,0
2017-11-01T02:21:14.051Z,0
2017-11-01T02:22:22.226Z,0
2017-11-01T02:23:30.242Z,0
2017-11-01T02:24:38.379Z,0
2017-11-01T02:25:46.397Z,0
2017-11-01T02:26:54.486Z,0
2017-11-01T02:28:02.603Z,0
2017-11-01T02:29:10.658Z,0
2017-11-01T02:30:18.816Z,0
2017-11-01T02:31:26.832Z,0
2017-11-01T02:32:34.918Z,0
2017-11-01T02:33:43.005Z,0
2017-11-01T02:34:51.090Z,0
2017-11-01T02:35:59.188Z,0
2017-11-01T02:37:07.265Z,0
2017-11-01T02:38:15.428Z,0
2017-11-01T02:39:23.635Z,0
2017-11-01T02:40:31.540Z,0
2017-11-01T02:41:39.735Z,0
2017-11-01T02:42:47.711Z,0
2017-11-01T02:43:55.795Z,0
2017-11-01T02:45:04.982Z,0
2017-11-01T02:46:11.968Z,0
2017-11-01T02:47:20.072Z,0
2017-11-01T02:48:28.139Z,0
2017-11-01T02:49:36.262Z,0
2017-11-01T02:50:44.345Z,0
2017-11-01T02:51:52.403Z,0
2017-11-01T02:53:00.539Z,0
2017-11-01T02:54:08.579Z,0
2017-11-01T02:55:16.665Z,0
2017-11-01T02:56:24.754Z,0
2017-11-01T02:57:32.838Z,0
2017-11-01T02:58:40.941Z,0
2017-11-01T02:59:49.018Z,0
2017-11-01T03:00:57.096Z,0
2017-11-01T03:02:05.184Z,0
2017-11-01T03:03:13.277Z,0
2017-11-01T03:04:21.365Z,0
2017-11-01T03:05:29.448Z,0
2017-11-01T03:06:38.697Z,0
2017-11-01T03:07:46.282Z,0
2017-11-01T03:08:54.437Z,0
2017-11-01T03:10:02.437Z,0
2017-11-01T03:11:10.412Z,0
2017-11-01T03:12:18.499Z,0
2017-11-01T03:13:26.681Z,0
2017-11-01T03:14:34.678Z,0
2017-11-01T03:15:42.939Z,0
2017-11-01T03:16:50.848Z,0
2017-11-01T03:17:58.934Z,0
2017-11-01T03:19:07.105Z,0
2017-11-01T03:20:15.107Z,0
2017-11-01T03:21:23.189Z,0
2017-11-01T03:22:31.274Z,0
2017-11-01T03:23:39.360Z,0
2017-11-01T03:24:47.448Z,0
2017-11-01T03:25:55.533Z,0
2017-11-01T03:27:03.618Z,0
2017-11-01T03:28:11.710Z,0
2017-11-01T03:29:19.798Z,0
2017-11-01T03:30:27.881Z,0
2017-11-01T03:31:35.971Z,0
2017-11-01T03:32:44.064Z,0
2017-11-01T03:33:52.140Z,0
2017-11-01T03:35:00.231Z,0
2017-11-01T03:36:08.402Z,0
2017-11-01T03:37:16.578Z,0
2017-11-01T03:38:24.706Z,0
2017-11-01T03:39:32.714Z,0
2017-11-01T03:40:40.748Z,0
2017-11-01T03:41:48.833Z,0
2017-11-01T03:42:56.927Z,0
2017-11-01T03:44:05.025Z,0
2017-11-01T03:45:13.131Z,0
2017-11-01T03:46:21.199Z,0
2017-11-01T03:47:29.285Z,0
2017-11-01T03:48:37.456Z,0
2017-11-01T03:49:45.530Z,0
2017-11-01T03:50:53.643Z,0
2017-11-01T03:52:01.883Z,0
2017-11-01T03:53:09.805Z,0
2017-11-01T03:54:17.806Z,0
2017-11-01T03:55:25.894Z,0
2017-11-01T03:56:33.984Z,0
2017-11-01T03:57:42.142Z,0
2017-11-01T03:58:50.151Z,0
2017-11-01T03:59:58.304Z,0
2017-11-01T04:01:06.326Z,0
2017-11-01T04:02:14.501Z,0
2017-11-01T04:03:22.504Z,0
2017-11-01T04:04:30.597Z,0
2017-11-01T04:05:38.749Z,0
2017-11-01T04:06:46.775Z,0
2017-11-01T04:07:54.957Z,0
2017-11-01T04:09:02.958Z,0
2017-11-01T04:10:11.117Z,0
2017-11-01T04:11:19.229Z,0
2017-11-01T04:12:27.298Z,0
2017-11-01T04:13:35.350Z,0
2017-11-01T04:14:43.435Z,0
2017-11-01T04:15:51.521Z,0
2017-11-01T04:16:59.607Z,0
2017-11-01T04:18:07.694Z,0
2017-11-01T04:19:15.785Z,0
2017-11-01T04:20:23.868Z,0
2017-11-01T04:21:31.976Z,0
2017-11-01T04:22:40.099Z,0
2017-11-01T04:23:48.185Z,0
2017-11-01T04:24:56.269Z,0
2017-11-01T04:26:04.357Z,0
2017-11-01T04:27:12.444Z,0
2017-11-01T04:28:20.528Z,0
2017-11-01T04:29:28.616Z,0
2017-11-01T04:30:36.709Z,0
2017-11-01T04:31:44.807Z,0
2017-11-01T04:32:53.188Z,0
2017-11-01T04:34:01.022Z,0
2017-11-01T04:35:09.059Z,0
2017-11-01T04:36:17.166Z,0
2017-11-01T04:37:25.233Z,0
2017-11-01T04:38:33.321Z,0
2017-11-01T04:39:41.413Z,0
2017-11-01T04:40:49.493Z,0
2017-11-01T04:41:57.580Z,0
2017-11-01T04:43:05.670Z,0
2017-11-01T04:44:13.753Z,0
2017-11-01T04:45:21.840Z,0
2017-11-01T04:46:29.929Z,0
2017-11-01T04:47:38.031Z,0
2017-11-01T04:48:46.126Z,0
2017-11-01T04:49:54.212Z,0
2017-11-01T04:51:02.302Z,0
2017-11-01T04:52:10.386Z,0
2017-11-01T04:53:18.474Z,0
2017-11-01T04:54:26.566Z,0
2017-11-01T04:55:34.648Z,0
2017-11-01T04:56:42.737Z,0
2017-11-01T04:57:50.821Z,0
2017-11-01T04:58:58.906Z,0
2017-11-01T05:00:06.992Z,0
2017-11-01T05:01:15.085Z,0
2017-11-01T05:02:23.168Z,0
2017-11-01T05:03:31.253Z,0
2017-11-01T05:04:39.347Z,0
2017-11-01T05:05:47.434Z,0
2017-11-01T05:06:55.518Z,0
2017-11-01T05:08:03.599Z,0
2017-11-01T05:09:11.687Z,0
2017-11-01T05:10:19.771Z,0
2017-11-01T05:11:27.862Z,0
2017-11-01T05:12:35.945Z,0
2017-11-01T05:13:44.057Z,0
2017-11-01T05:14:52.130Z,0
2017-11-01T05:16:00.216Z,0
2017-11-01T05:17:08.339Z,0
2017-11-01T05:18:16.420Z,0
2017-11-01T05:19:24.510Z,0
2017-11-01T05:20:32.592Z,0
2017-11-01T05:21:40.680Z,0
2017-11-01T05:22:48.767Z,0
2017-11-01T05:23:56.853Z,0
2017-11-01T05:25:04.946Z,0
2017-11-01T05:26:13.028Z,0
2017-11-01T05:27:21.189Z,0
2017-11-01T05:28:29.206Z,0
2017-11-01T05:29:37.286Z,0
2017-11-01T05:30:45.373Z,0
2017-11-01T05:31:53.460Z,0
2017-11-01T05:33:01.548Z,0
2017-11-01T05:34:09.637Z,0
2017-11-01T05:35:17.725Z,0
2017-11-01T05:36:25.808Z,0
2017-11-01T05:37:33.902Z,0
2017-11-01T05:38:41.982Z,0
2017-11-01T05:39:50.080Z,0
2017-11-01T05:40:58.162Z,0
2017-11-01T05:42:06.250Z,0
2017-11-01T05:43:14.343Z,0
2017-11-01T05:44:22.423Z,0
2017-11-01T05:45:30.513Z,0
2017-11-01T05:46:38.620Z,0
2017-11-01T05:47:46.707Z,0
2017-11-01T05:48:54.795Z,0
2017-11-01T05:50:02.882Z,0
2017-11-01T05:51:10.974Z,0
2017-11-01T05:52:19.060Z,0
2017-11-01T05:53:27.139Z,0
2017-11-01T05:54:35.226Z,0
2017-11-01T05:55:43.315Z,0
2017-11-01T05:56:51.410Z,0
2017-11-01T05:57:59.486Z,0
2017-11-01T05:59:07.578Z,0
2017-11-01T06:00:15.667Z,0
2017-11-01T06:01:23.753Z,0
2017-11-01T06:02:31.838Z,0
2017-11-01T06:03:39.926Z,0
2017-11-01T06:04:48.600Z,0
2017-11-01T06:05:56.684Z,0
2017-11-01T06:07:04.770Z,0
2017-11-01T06:08:12.860Z,0
2017-11-01T06:09:20.955Z,0
2017-11-01T06:10:29.035Z,0
2017-11-01T06:11:37.137Z,0
2017-11-01T06:12:45.213Z,0
2017-11-01T06:13:53.294Z,0
2017-11-01T06:15:04.612Z,0
2017-11-01T06:16:09.482Z,4
2017-11-01T06:17:17.564Z,4
2017-11-01T06:18:25.651Z,4
2017-11-01T06:19:33.748Z,0
2017-11-01T06:20:41.828Z,0
2017-11-01T06:21:49.914Z,0
2017-11-01T06:22:57.999Z,0
2017-11-01T06:24:06.092Z,0
2017-11-01T06:25:14.172Z,4
2017-11-01T06:26:22.258Z,4
2017-11-01T06:27:30.346Z,4
2017-11-01T06:28:38.438Z,0
2017-11-01T06:29:46.524Z,0
2017-11-01T06:30:54.618Z,0
2017-11-01T06:32:02.696Z,4
2017-11-01T06:33:10.783Z,4
2017-11-01T06:34:18.877Z,4
2017-11-01T06:35:26.975Z,4
2017-11-01T06:36:35.051Z,4
2017-11-01T06:37:43.203Z,4
2017-11-01T06:38:51.674Z,4
2017-11-01T06:39:59.375Z,4
2017-11-01T06:41:07.463Z,4
2017-11-01T06:42:15.551Z,0
2017-11-01T06:43:23.641Z,4
2017-11-01T06:44:31.724Z,4
2017-11-01T06:45:39.810Z,4
2017-11-01T06:46:47.899Z,4
2017-11-01T06:47:56.008Z,4
2017-11-01T06:49:04.082Z,4
2017-11-01T06:50:12.165Z,4
2017-11-01T06:51:20.255Z,4
2017-11-01T06:52:28.348Z,4
2017-11-01T06:53:36.434Z,4
2017-11-01T06:54:44.538Z,4
2017-11-01T06:55:52.630Z,4
2017-11-01T06:57:00.709Z,8
2017-11-01T06:58:08.797Z,8
2017-11-01T06:59:16.902Z,8
2017-11-01T07:00:24.979Z,8
2017-11-01T07:01:33.143Z,8
2017-11-01T07:02:41.159Z,4
2017-11-01T07:03:49.230Z,8
2017-11-01T07:04:57.320Z,4
2017-11-01T07:06:05.403Z,4
2017-11-01T07:07:13.490Z,8
2017-11-01T07:08:21.575Z,8
2017-11-01T07:09:29.673Z,8
2017-11-01T07:10:37.750Z,8
2017-11-01T07:11:45.837Z,4
2017-11-01T07:12:53.926Z,8
2017-11-01T07:14:02.012Z,8
2017-11-01T07:15:10.104Z,4
2017-11-01T07:16:18.185Z,4
2017-11-01T07:17:26.297Z,4
2017-11-01T07:18:34.360Z,4
2017-11-01T07:19:42.445Z,4
2017-11-01T07:20:50.534Z,4
2017-11-01T07:21:58.618Z,4
2017-11-01T07:23:06.706Z,4
2017-11-01T07:24:14.882Z,8
2017-11-01T07:25:22.880Z,8
2017-11-01T07:26:30.966Z,8
2017-11-01T07:27:39.052Z,8
2017-11-01T07:28:47.149Z,4
2017-11-01T07:29:55.233Z,8
2017-11-01T07:31:03.488Z,4
2017-11-01T07:32:11.408Z,8
2017-11-01T07:33:19.882Z,8
2017-11-01T07:34:27.582Z,12
2017-11-01T07:35:35.667Z,8
2017-11-01T07:36:43.754Z,8
2017-11-01T07:37:51.839Z,12
2017-11-01T07:38:59.932Z,8
2017-11-01T07:40:08.020Z,8
2017-11-01T07:41:16.107Z,12
2017-11-01T07:42:24.252Z,8
2017-11-01T07:43:32.277Z,8
2017-11-01T07:44:40.363Z,8
2017-11-01T07:45:48.450Z,12
2017-11-01T07:46:56.537Z,12
2017-11-01T07:48:04.624Z,8
2017-11-01T07:49:12.709Z,12
2017-11-01T07:50:20.797Z,12
2017-11-01T07:51:28.904Z,12
2017-11-01T07:52:36.971Z,12
2017-11-01T07:53:45.063Z,12
2017-11-01T07:54:53.149Z,16
2017-11-01T07:56:01.230Z,12
2017-11-01T07:57:09.317Z,16
2017-11-01T07:58:17.408Z,16
2017-11-01T07:59:25.490Z,20
2017-11-01T08:00:33.577Z,16
2017-11-01T08:01:41.675Z,20
2017-11-01T08:02:50.034Z,32
2017-11-01T08:03:57.847Z,32
2017-11-01T08:05:05.938Z,32
2017-11-01T08:06:14.022Z,24
2017-11-01T08:07:22.107Z,20
2017-11-01T08:08:30.569Z,20
2017-11-01T08:09:38.283Z,20
2017-11-01T08:10:46.371Z,20
2017-11-01T08:11:54.453Z,32
2017-11-01T08:13:02.543Z,32
2017-11-01T08:14:10.627Z,32
2017-11-01T08:15:18.714Z,20
2017-11-01T08:16:26.800Z,20
2017-11-01T08:17:34.902Z,16
2017-11-01T08:18:43.233Z,16
2017-11-01T08:19:51.267Z,16
2017-11-01T08:20:59.356Z,12
2017-11-01T08:22:07.442Z,12
2017-11-01T08:23:15.529Z,16
2017-11-01T08:24:23.615Z,16
2017-11-01T08:25:31.702Z,20
2017-11-01T08:26:39.789Z,20
2017-11-01T08:27:47.878Z,20
2017-11-01T08:28:55.982Z,20
2017-11-01T08:30:04.540Z,20
2017-11-01T08:31:12.153Z,20
2017-11-01T08:32:20.243Z,24
2017-11-01T08:33:28.327Z,24
2017-11-01T08:34:36.450Z,24
2017-11-01T08:35:44.499Z,20
2017-11-01T08:36:52.586Z,24
2017-11-01T08:38:00.674Z,28
2017-11-01T08:39:08.837Z,24
2017-11-01T08:40:16.847Z,24
2017-11-01T08:41:24.973Z,24
2017-11-01T08:42:33.021Z,24
2017-11-01T08:43:41.108Z,24
2017-11-01T08:44:49.195Z,28
2017-11-01T08:45:57.381Z,32
2017-11-01T08:47:05.368Z,24
2017-11-01T08:48:13.837Z,36
2017-11-01T08:49:21.541Z,32
2017-11-01T08:50:30.086Z,28
2017-11-01T08:51:37.720Z,36
2017-11-01T08:52:45.945Z,36
2017-11-01T08:53:54.206Z,32
2017-11-01T08:55:01.978Z,36
2017-11-01T08:56:10.067Z,40
2017-11-01T08:57:18.575Z,32
2017-11-01T08:58:26.707Z,32
2017-11-01T08:59:34.320Z,32
2017-11-01T09:00:42.407Z,32
2017-11-01T09:01:51.072Z,28
2017-11-01T09:02:58.974Z,36
2017-11-01T09:04:06.678Z,28
2017-11-01T09:05:14.927Z,40
2017-11-01T09:06:22.865Z,24
2017-11-01T09:07:31.305Z,24
2017-11-01T09:08:39.048Z,24
2017-11-01T09:09:47.256Z,24
2017-11-01T09:10:55.234Z,32
2017-11-01T09:12:03.304Z,36
2017-11-01T09:13:11.387Z,28
2017-11-01T09:14:19.909Z,32
2017-11-01T09:15:27.791Z,40
2017-11-01T09:16:35.799Z,44
2017-11-01T09:17:43.860Z,44
2017-11-01T09:18:51.820Z,48
2017-11-01T09:20:00.580Z,48
2017-11-01T09:21:07.998Z,36
2017-11-01T09:22:16.393Z,36
2017-11-01T09:23:24.164Z,32
2017-11-01T09:24:32.728Z,36
2017-11-01T09:25:40.505Z,28
2017-11-01T09:26:48.424Z,24
2017-11-01T09:27:56.512Z,24
2017-11-01T09:29:04.599Z,28
2017-11-01T09:30:12.693Z,32
2017-11-01T09:31:20.778Z,28
2017-11-01T09:32:28.866Z,28
2017-11-01T09:33:36.961Z,24
2017-11-01T09:34:45.046Z,24
2017-11-01T09:35:53.133Z,24
2017-11-01T09:37:01.213Z,28
2017-11-01T09:38:09.303Z,28
2017-11-01T09:39:17.388Z,52
2017-11-01T09:40:25.474Z,44
2017-11-01T09:41:33.565Z,32
2017-11-01T09:42:41.652Z,32
2017-11-01T09:43:49.738Z,32
2017-11-01T09:44:57.824Z,28
2017-11-01T09:46:05.931Z,28
2017-11-01T09:47:13.998Z,36
2017-11-01T09:48:22.089Z,56
2017-11-01T09:49:30.174Z,44
2017-11-01T09:50:38.259Z,32
2017-11-01T09:51:46.343Z,40
2017-11-01T09:52:54.431Z,32
2017-11-01T09:54:02.517Z,28
2017-11-01T09:55:10.603Z,24
2017-11-01T09:56:18.691Z,24
2017-11-01T09:57:26.779Z,20
2017-11-01T09:58:34.865Z,20
2017-11-01T09:59:42.954Z,16
2017-11-01T10:00:51.320Z,16
2017-11-01T10:01:59.406Z,16
2017-11-01T10:03:07.491Z,16
2017-11-01T10:04:15.575Z,16
2017-11-01T10:05:23.663Z,20
2017-11-01T10:06:31.761Z,32
2017-11-01T10:07:39.835Z,40
2017-11-01T10:08:47.925Z,36
2017-11-01T10:09:56.092Z,32
2017-11-01T10:11:04.183Z,36
2017-11-01T10:12:12.265Z,36
2017-11-01T10:13:20.351Z,40
2017-11-01T10:14:28.436Z,40
2017-11-01T10:15:36.520Z,36
2017-11-01T10:16:44.608Z,32
2017-11-01T10:17:52.694Z,40
2017-11-01T10:19:00.781Z,36
2017-11-01T10:20:08.868Z,32
2017-11-01T10:21:16.955Z,32
2017-11-01T10:22:25.051Z,40
2017-11-01T10:23:33.128Z,44
2017-11-01T10:24:41.229Z,44
2017-11-01T10:25:49.303Z,40
2017-11-01T10:26:57.392Z,44
2017-11-01T10:28:05.471Z,40
2017-11-01T10:29:13.558Z,44
2017-11-01T10:30:21.645Z,40
2017-11-01T10:31:29.819Z,40
2017-11-01T10:32:37.818Z,40
2017-11-01T10:33:45.953Z,40
2017-11-01T10:34:53.999Z,40
2017-11-01T10:36:02.089Z,40
2017-11-01T10:37:10.170Z,40
2017-11-01T10:38:18.263Z,40
2017-11-01T10:39:26.346Z,40
2017-11-01T10:40:34.453Z,40
2017-11-01T10:41:42.525Z,24
2017-11-01T10:42:50.603Z,24
2017-11-01T10:43:58.692Z,24
2017-11-01T10:45:06.793Z,20
2017-11-01T10:46:14.863Z,16
2017-11-01T10:47:22.953Z,20
2017-11-01T10:48:31.040Z,20
2017-11-01T10:49:39.123Z,24
2017-11-01T10:50:47.210Z,24
2017-11-01T10:51:55.299Z,28
2017-11-01T10:53:03.384Z,20
2017-11-01T10:54:11.467Z,28
2017-11-01T10:55:19.555Z,28
2017-11-01T10:56:27.641Z,32
2017-11-01T10:57:35.728Z,36
2017-11-01T10:58:43.813Z,32
2017-11-01T10:59:51.902Z,32
2017-11-01T11:00:59.985Z,32
2017-11-01T11:02:08.076Z,36
2017-11-01T11:03:16.161Z,32
2017-11-01T11:04:24.243Z,36
2017-11-01T11:05:32.330Z,32
2017-11-01T11:06:40.422Z,32
2017-11-01T11:07:48.505Z,32
2017-11-01T11:08:56.592Z,32
2017-11-01T11:10:04.678Z,32
2017-11-01T11:11:12.765Z,32
2017-11-01T11:12:20.850Z,32
2017-11-01T11:13:28.949Z,32
2017-11-01T11:14:37.054Z,32
2017-11-01T11:15:45.126Z,32
2017-11-01T11:16:53.208Z,32
2017-11-01T11:18:01.302Z,28
2017-11-01T11:19:09.383Z,32
2017-11-01T11:20:17.466Z,32
2017-11-01T11:21:25.554Z,32
2017-11-01T11:22:33.641Z,32
2017-11-01T11:23:41.725Z,28
2017-11-01T11:24:49.815Z,28
2017-11-01T11:25:57.900Z,28
2017-11-01T11:27:05.995Z,32
2017-11-01T11:28:14.079Z,32
2017-11-01T11:29:22.162Z,32
2017-11-01T11:30:30.248Z,32
2017-11-01T11:31:38.334Z,32
2017-11-01T11:32:46.419Z,28
2017-11-01T11:33:54.508Z,28
2017-11-01T11:35:02.596Z,28
2017-11-01T11:36:10.680Z,28
2017-11-01T11:37:18.767Z,28
2017-11-01T11:38:26.855Z,32
2017-11-01T11:39:35.274Z,32
2017-11-01T11:40:43.376Z,32
2017-11-01T11:41:51.445Z,32
2017-11-01T11:42:59.531Z,32
2017-11-01T11:44:07.623Z,28
2017-11-01T11:45:15.707Z,28
2017-11-01T11:46:23.792Z,28
2017-11-01T11:47:31.900Z,32
2017-11-01T11:48:39.983Z,32
2017-11-01T11:49:48.071Z,32
2017-11-01T11:50:56.160Z,32
2017-11-01T11:52:04.244Z,28
2017-11-01T11:53:12.331Z,32
2017-11-01T11:54:20.420Z,32
2017-11-01T11:55:28.508Z,28
2017-11-01T11:56:36.591Z,28
2017-11-01T11:57:44.678Z,28
2017-11-01T11:58:52.772Z,28
2017-11-01T12:00:00.949Z,28
2017-11-01T12:01:08.948Z,28
2017-11-01T12:02:17.041Z,28
2017-11-01T12:03:25.123Z,32
2017-11-01T12:04:33.435Z,32
2017-11-01T12:05:41.293Z,28
2017-11-01T12:06:49.398Z,28
2017-11-01T12:07:57.472Z,32
2017-11-01T12:09:05.552Z,28
2017-11-01T12:10:13.641Z,28
2017-11-01T12:11:21.728Z,28
2017-11-01T12:12:29.823Z,28
2017-11-01T12:13:37.904Z,28
2017-11-01T12:14:45.992Z,28
2017-11-01T12:15:54.078Z,32
2017-11-01T12:17:02.160Z,32
2017-11-01T12:18:10.247Z,28
2017-11-01T12:19:18.333Z,32
2017-11-01T12:20:26.422Z,28
2017-11-01T12:21:34.509Z,32
2017-11-01T12:22:42.597Z,32
2017-11-01T12:23:50.683Z,32
2017-11-01T12:24:58.770Z,32
2017-11-01T12:26:06.859Z,32
2017-11-01T12:27:14.950Z,32
2017-11-01T12:28:23.027Z,32
2017-11-01T12:29:31.119Z,32
2017-11-01T12:30:39.204Z,36
2017-11-01T12:31:47.296Z,32
2017-11-01T12:32:55.378Z,32
2017-11-01T12:34:03.465Z,36
2017-11-01T12:35:11.553Z,32
2017-11-01T12:36:19.638Z,32
2017-11-01T12:37:27.723Z,32
2017-11-01T12:38:35.811Z,32
2017-11-01T12:39:43.905Z,32
2017-11-01T12:40:51.989Z,32
2017-11-01T12:42:00.077Z,32
2017-11-01T12:43:08.160Z,32
2017-11-01T12:44:16.292Z,32
2017-11-01T12:45:24.377Z,32
2017-11-01T12:46:32.465Z,36
2017-11-01T12:47:40.552Z,32
2017-11-01T12:48:48.640Z,32
2017-11-01T12:49:56.901Z,32
2017-11-01T12:51:04.963Z,28
2017-11-01T12:52:13.051Z,32
2017-11-01T12:53:21.141Z,32
2017-11-01T12:54:29.223Z,32
2017-11-01T12:55:37.309Z,32
2017-11-01T12:56:45.398Z,28
2017-11-01T12:57:53.485Z,28
2017-11-01T12:59:01.575Z,28
2017-11-01T13:00:09.660Z,32
2017-11-01T13:01:17.747Z,32
2017-11-01T13:02:25.833Z,32
2017-11-01T13:03:33.922Z,28
2017-11-01T13:04:42.022Z,28
2017-11-01T13:05:50.225Z,28
2017-11-01T13:06:58.308Z,28
2017-11-01T13:08:06.393Z,28
2017-11-01T13:09:14.480Z,28
2017-11-01T13:10:22.567Z,28
2017-11-01T13:11:30.653Z,24
2017-11-01T13:12:38.741Z,28
2017-11-01T13:13:46.828Z,28
2017-11-01T13:14:54.917Z,28
2017-11-01T13:16:03.400Z,28
2017-11-01T13:17:11.089Z,28
2017-11-01T13:18:19.191Z,28
2017-11-01T13:19:27.263Z,28
2017-11-01T13:20:35.352Z,28
2017-11-01T13:21:43.438Z,28
2017-11-01T13:22:51.526Z,28
2017-11-01T13:23:59.611Z,28
2017-11-01T13:25:07.699Z,28
2017-11-01T13:26:15.786Z,28
2017-11-01T13:27:23.876Z,28
2017-11-01T13:28:31.962Z,28
2017-11-01T13:29:40.054Z,32
2017-11-01T13:30:48.139Z,28
2017-11-01T13:31:56.219Z,32
2017-11-01T13:33:04.306Z,32
2017-11-01T13:34:12.392Z,32
2017-11-01T13:35:20.481Z,36
2017-11-01T13:36:28.567Z,36
2017-11-01T13:37:36.655Z,36
2017-11-01T13:38:44.738Z,40
2017-11-01T13:39:52.827Z,40
2017-11-01T13:41:00.912Z,44
2017-11-01T13:42:09.002Z,44
2017-11-01T13:43:17.086Z,48
2017-11-01T13:44:25.175Z,44
2017-11-01T13:45:33.317Z,48
2017-11-01T13:46:41.401Z,52
2017-11-01T13:47:49.489Z,48
2017-11-01T13:48:57.576Z,48
2017-11-01T13:50:05.671Z,52
2017-11-01T13:51:13.755Z,52
2017-11-01T13:52:21.837Z,52
2017-11-01T13:53:29.925Z,52
2017-11-01T13:54:38.010Z,52
2017-11-01T13:55:46.098Z,56
2017-11-01T13:56:54.189Z,56
2017-11-01T13:58:02.275Z,52
2017-11-01T13:59:10.365Z,56
2017-11-01T14:00:18.452Z,56
2017-11-01T14:01:26.540Z,56
2017-11-01T14:02:34.626Z,60
2017-11-01T14:03:42.712Z,56
2017-11-01T14:04:50.799Z,56
2017-11-01T14:05:58.888Z,56
2017-11-01T14:07:06.974Z,56
2017-11-01T14:08:15.060Z,56
2017-11-01T14:09:23.149Z,60
2017-11-01T14:10:31.235Z,60
2017-11-01T14:11:39.323Z,64
2017-11-01T14:12:47.406Z,64
2017-11-01T14:13:55.493Z,68
2017-11-01T14:15:03.579Z,68
2017-11-01T14:16:11.666Z,68
2017-11-01T14:17:19.752Z,72
2017-11-01T14:18:27.844Z,76
2017-11-01T14:19:35.932Z,80
2017-11-01T14:20:44.015Z,76
2017-11-01T14:21:52.101Z,76
2017-11-01T14:23:00.206Z,76
2017-11-01T14:24:08.297Z,72
2017-11-01T14:25:16.362Z,68
2017-11-01T14:26:24.447Z,64
2017-11-01T14:27:32.535Z,60
2017-11-01T14:28:40.621Z,56
2017-11-01T14:29:48.710Z,56
2017-11-01T14:30:56.799Z,52
2017-11-01T14:32:04.898Z,44
2017-11-01T14:33:13.002Z,40
2017-11-01T14:34:21.068Z,40
2017-11-01T14:35:29.156Z,36
2017-11-01T14:36:37.263Z,32
2017-11-01T14:37:45.328Z,32
2017-11-01T14:38:53.414Z,28
2017-11-01T14:40:02.232Z,24
2017-11-01T14:41:09.588Z,24
2017-11-01T14:42:17.776Z,24
2017-11-01T14:43:25.763Z,20
2017-11-01T14:44:33.848Z,12
2017-11-01T14:45:41.955Z,12
2017-11-01T14:46:50.024Z,12
2017-11-01T14:47:58.111Z,8
2017-11-01T14:49:06.197Z,12
2017-11-01T14:50:14.304Z,12
2017-11-01T14:51:22.390Z,8
2017-11-01T14:52:30.477Z,8
2017-11-01T14:53:38.566Z,12
2017-11-01T14:54:46.650Z,8
2017-11-01T14:55:54.738Z,12
2017-11-01T14:57:02.822Z,8
2017-11-01T14:58:10.928Z,8
2017-11-01T14:59:19.016Z,8
2017-11-01T15:00:27.109Z,8
2017-11-01T15:01:35.216Z,8
2017-11-01T15:02:43.283Z,8
2017-11-01T15:03:51.371Z,8
2017-11-01T15:04:59.458Z,8
2017-11-01T15:06:07.544Z,8
2017-11-01T15:07:15.631Z,4
2017-11-01T15:08:23.720Z,4
2017-11-01T15:09:31.805Z,8
2017-11-01T15:10:39.889Z,8
2017-11-01T15:11:47.978Z,8
2017-11-01T15:12:56.075Z,8
2017-11-01T15:14:04.166Z,4
2017-11-01T15:15:12.251Z,4
2017-11-01T15:16:20.355Z,4
2017-11-01T15:17:28.434Z,4
2017-11-01T15:18:36.537Z,4
2017-11-01T15:19:44.606Z,8
2017-11-01T15:20:52.694Z,8
2017-11-01T15:22:00.788Z,4
2017-11-01T15:23:08.876Z,4
2017-11-01T15:24:16.963Z,4
2017-11-01T15:25:25.056Z,4
2017-11-01T15:26:33.140Z,4
2017-11-01T15:27:41.239Z,4
2017-11-01T15:28:49.311Z,4
2017-11-01T15:29:57.395Z,0
2017-11-01T15:31:05.503Z,4
2017-11-01T15:32:13.598Z,4
2017-11-01T15:33:21.684Z,4
2017-11-01T15:34:29.768Z,4
2017-11-01T15:35:37.849Z,4
2017-11-01T15:36:45.933Z,4
2017-11-01T15:37:54.040Z,4
2017-11-01T15:39:02.109Z,4
2017-11-01T15:40:10.196Z,4
2017-11-01T15:41:18.283Z,4
2017-11-01T15:42:26.366Z,4
2017-11-01T15:43:34.454Z,4
2017-11-01T15:44:42.544Z,0
2017-11-01T15:45:50.637Z,0
2017-11-01T15:46:58.723Z,0
2017-11-01T15:48:06.828Z,0
2017-11-01T15:49:14.907Z,0
2017-11-01T15:50:22.999Z,0
2017-11-01T15:51:31.631Z,0
2017-11-01T15:52:39.208Z,0
2017-11-01T15:53:47.253Z,0
2017-11-01T15:54:55.337Z,4
2017-11-01T15:56:03.429Z,0
2017-11-01T15:57:11.515Z,0
2017-11-01T15:58:19.600Z,0
2017-11-01T15:59:27.686Z,0
2017-11-01T16:00:35.786Z,0
2017-11-01T16:01:43.862Z,0
2017-11-01T16:02:51.948Z,0
2017-11-01T16:04:00.044Z,0
2017-11-01T16:05:08.120Z,0
2017-11-01T16:06:16.315Z,0
2017-11-01T16:07:24.479Z,0
2017-11-01T16:08:32.378Z,0
2017-11-01T16:09:40.466Z,0
2017-11-01T16:10:48.556Z,0
2017-11-01T16:11:57.240Z,0
2017-11-01T16:13:04.725Z,0
2017-11-01T16:14:12.901Z,0
2017-11-01T16:15:20.906Z,0
2017-11-01T16:16:28.991Z,0
2017-11-01T16:17:37.080Z,0
2017-11-01T16:18:45.234Z,0
2017-11-01T16:19:53.342Z,0
2017-11-01T16:21:01.334Z,0
2017-11-01T16:22:09.430Z,0
2017-11-01T16:23:17.509Z,0
2017-11-01T16:24:25.742Z,0
2017-11-01T16:25:33.682Z,0
2017-11-01T16:26:41.769Z,0
2017-11-01T16:27:49.852Z,0
2017-11-01T16:28:57.939Z,0
2017-11-01T16:30:06.025Z,0
2017-11-01T16:31:14.113Z,0